Naples, Florida
Current Conditions -  °F | °C
As of 10:44 PM on Saturday 22 Nov 2014 (Local Time) from KAPF Reporting Station
Overcast Overcast  
Wind Chill: 72°   Ceiling: 2200
Heat Index: 72°   Visibility: 10mi
Dew Point: 71°   Wind: 9mph
Humidity: 97%   Direction: 90°E
Pressure: 30.06"   Gusts: NA
Location:  26.14°N, 81.79°W
Report Text: KAPF 230344Z AUTO 09008KT 10SM SCT010 BKN022 OVC060 22/22 A3006 RMK AO2 T02220217
Loading
Personal Weather Stations






























Interactive Weather Map New forecast layout! Learn more

10-Day Weather Forecast

Advertisements
Track Severe Weather on mobile